Time;durP1;ratioP1;P1;durP2;ratioP2;P2;SDS_P1;SDS_P2;PMS_P1;PMS_P2;Temp;Humidity;BMP_temperature;BMP_pressure;BME280_temperature;BME280_humidity;BME280_pressure;Samples;Min_cycle;Max_cycle;Signal;HPM_P1;HPM_P2
2023/12/24 00:00:38;;;;;;;4.10;1.60;;;;;;;-128.00;-1.00;-1.00;100158;1284;1059491;-30
2023/12/24 00:03:06;;;;;;;2.00;1.00;;;;;;;-128.00;-1.00;-1.00;100207;1285;1004208;-31
2023/12/24 00:05:32;;;;;;;5.30;1.30;;;;;;;-128.00;-1.00;-1.00;100146;1283;1005035;-31
2023/12/24 00:07:57;;;;;;;3.50;1.30;;;;;;;-128.00;-1.00;-1.00;100168;1282;1003211;-31
2023/12/24 00:10:23;;;;;;;2.50;1.30;;;;;;;-128.00;-1.00;-1.00;100156;1283;1002910;-30
2023/12/24 00:12:48;;;;;;;2.00;0.80;;;;;;;-128.00;-1.00;-1.00;100178;1283;1004152;-32
2023/12/24 00:15:15;;;;;;;4.20;1.50;;;;;;;-128.00;-1.00;-1.00;100230;1286;1039556;-32
2023/12/24 00:17:41;;;;;;;2.90;1.30;;;;;;;-128.00;-1.00;-1.00;100094;1283;1004095;-32
2023/12/24 00:20:07;;;;;;;2.50;1.10;;;;;;;-128.00;-1.00;-1.00;100332;1282;1004878;-32
2023/12/24 00:22:32;;;;;;;3.20;1.10;;;;;;;-128.00;-1.00;-1.00;100123;1282;1059441;-31
2023/12/24 00:24:58;;;;;;;5.60;1.60;;;;;;;-128.00;-1.00;-1.00;100216;1283;1004799;-32
2023/12/24 00:27:24;;;;;;;5.40;1.40;;;;;;;-128.00;-1.00;-1.00;100195;1286;1003118;-32
2023/12/24 00:29:49;;;;;;;3.40;1.00;;;;;;;-128.00;-1.00;-1.00;100173;1283;1060300;-30
2023/12/24 00:32:16;;;;;;;3.30;1.50;;;;;;;-128.00;-1.00;-1.00;100151;1283;1002673;-31
2023/12/24 00:34:42;;;;;;;3.00;1.20;;;;;;;-128.00;-1.00;-1.00;100135;1283;1003136;-30
2023/12/24 00:37:07;;;;;;;1.20;0.70;;;;;;;-128.00;-1.00;-1.00;100152;1284;1005013;-31
2023/12/24 00:39:33;;;;;;;1.50;0.90;;;;;;;-128.00;-1.00;-1.00;100184;1286;1003251;-37
2023/12/24 00:41:58;;;;;;;2.80;0.80;;;;;;;-128.00;-1.00;-1.00;100136;1287;1004482;-32
2023/12/24 00:44:24;;;;;;;3.10;1.10;;;;;;;-128.00;-1.00;-1.00;100166;1283;1003822;-33
2023/12/24 00:46:50;;;;;;;2.70;1.20;;;;;;;-128.00;-1.00;-1.00;100204;1285;1003885;-33
2023/12/24 00:49:15;;;;;;;1.80;0.70;;;;;;;-128.00;-1.00;-1.00;100146;1283;1003208;-32
2023/12/24 00:51:42;;;;;;;2.60;0.80;;;;;;;-128.00;-1.00;-1.00;100210;1283;1003137;-31
2023/12/24 00:54:08;;;;;;;2.60;0.90;;;;;;;-128.00;-1.00;-1.00;100152;1283;1055314;-32
2023/12/24 00:56:34;;;;;;;4.00;0.90;;;;;;;-128.00;-1.00;-1.00;100126;1288;1004463;-31
2023/12/24 00:58:59;;;;;;;4.00;0.90;;;;;;;-128.00;-1.00;-1.00;100182;1286;1003134;-31
2023/12/24 01:01:25;;;;;;;1.60;0.70;;;;;;;-128.00;-1.00;-1.00;100199;1286;1046796;-33
2023/12/24 01:03:50;;;;;;;2.30;0.70;;;;;;;-128.00;-1.00;-1.00;100196;1283;1003920;-32
2023/12/24 01:06:16;;;;;;;5.30;0.80;;;;;;;-128.00;-1.00;-1.00;100172;1285;1060026;-32
2023/12/24 01:08:42;;;;;;;7.60;0.50;;;;;;;-128.00;-1.00;-1.00;100193;1283;1002659;-33
2023/12/24 01:11:07;;;;;;;2.20;0.60;;;;;;;-128.00;-1.00;-1.00;100092;1288;1003109;-34
2023/12/24 01:13:33;;;;;;;2.60;0.80;;;;;;;-128.00;-1.00;-1.00;100153;1283;1002772;-33
2023/12/24 01:16:00;;;;;;;3.30;0.90;;;;;;;-128.00;-1.00;-1.00;100166;1283;1002803;-32
2023/12/24 01:18:26;;;;;;;4.60;0.70;;;;;;;-128.00;-1.00;-1.00;100144;1285;1012657;-32
2023/12/24 01:20:52;;;;;;;2.70;0.50;;;;;;;-128.00;-1.00;-1.00;100116;1283;1004607;-31
2023/12/24 01:23:18;;;;;;;4.20;0.50;;;;;;;-128.00;-1.00;-1.00;100156;1283;1003214;-33
2023/12/24 01:25:44;;;;;;;;;;;;;;;-128.00;-1.00;-1.00;100246;1283;1003237;-32
2023/12/24 01:28:10;;;;;;;2.10;0.60;;;;;;;-128.00;-1.00;-1.00;100133;1286;1057914;-30
2023/12/24 01:30:36;;;;;;;2.30;0.90;;;;;;;-128.00;-1.00;-1.00;100152;1285;1003499;-31
2023/12/24 01:33:01;;;;;;;4.40;0.50;;;;;;;-128.00;-1.00;-1.00;100245;1287;1002971;-32
2023/12/24 01:35:27;;;;;;;2.70;0.50;;;;;;;-128.00;-1.00;-1.00;100228;1283;1060357;-31
2023/12/24 01:37:54;;;;;;;1.40;0.40;;;;;;;-128.00;-1.00;-1.00;100174;1286;1002933;-32
2023/12/24 01:40:19;;;;;;;1.00;0.30;;;;;;;-128.00;-1.00;-1.00;100109;1283;1003240;-33
2023/12/24 01:42:45;;;;;;;0.80;0.30;;;;;;;-128.00;-1.00;-1.00;100203;1284;1004111;-34
2023/12/24 01:45:11;;;;;;;1.20;0.30;;;;;;;-128.00;-1.00;-1.00;100131;1283;1045530;-32
2023/12/24 01:47:37;;;;;;;3.70;0.30;;;;;;;-128.00;-1.00;-1.00;100161;1284;1002916;-30
2023/12/24 01:50:04;;;;;;;0.90;0.40;;;;;;;-128.00;-1.00;-1.00;100276;1283;1002818;-33
2023/12/24 01:52:29;;;;;;;2.00;0.50;;;;;;;-128.00;-1.00;-1.00;100157;1285;1003093;-32
2023/12/24 02:33:09;;;;;;;0.70;0.20;;;;;;;-102.65;19.20;19632.14;100829;1283;1600910;-34
2023/12/24 02:35:35;;;;;;;0.20;0.10;;;;;;;-128.00;-1.00;-1.00;100292;1285;1003799;-32
2023/12/24 02:38:01;;;;;;;1.30;0.30;;;;;;;-128.00;-1.00;-1.00;100540;1284;1004272;-33
2023/12/24 02:40:27;;;;;;;1.10;0.20;;;;;;;-128.00;-1.00;-1.00;100467;1280;1003297;-32
2023/12/24 02:42:52;;;;;;;0.50;0.20;;;;;;;-128.00;-1.00;-1.00;100522;1284;1003854;-33
2023/12/24 02:45:18;;;;;;;0.50;0.10;;;;;;;-128.00;-1.00;-1.00;100423;1285;1003175;-33
2023/12/24 02:47:43;;;;;;;0.70;0.20;;;;;;;-128.00;-1.00;-1.00;100479;1280;1005051;-34
2023/12/24 02:50:09;;;;;;;0.20;0.10;;;;;;;-128.00;-1.00;-1.00;100516;1281;1004057;-32
2023/12/24 02:52:35;;;;;;;0.30;0.10;;;;;;;-128.00;-1.00;-1.00;100541;1280;1059275;-34
2023/12/24 02:55:01;;;;;;;1.50;0.20;;;;;;;-128.00;-1.00;-1.00;100557;1280;1003822;-32
2023/12/24 02:57:26;;;;;;;1.20;0.20;;;;;;;-128.00;-1.00;-1.00;100476;1280;1003402;-35
2023/12/24 02:59:52;;;;;;;1.80;0.20;;;;;;;-128.00;-1.00;-1.00;100537;1280;1003266;-34
2023/12/24 03:02:18;;;;;;;0.40;0.20;;;;;;;-128.00;-1.00;-1.00;100495;1285;1005198;-32
2023/12/24 03:04:44;;;;;;;0.90;0.20;;;;;;;-128.00;-1.00;-1.00;100539;1280;1055742;-32
2023/12/24 03:07:09;;;;;;;0.20;0.10;;;;;;;-128.00;-1.00;-1.00;100468;1280;1003017;-31
2023/12/24 03:09:35;;;;;;;0.60;0.20;;;;;;;-128.00;-1.00;-1.00;100474;1280;1003498;-35
2023/12/24 03:12:00;;;;;;;0.80;0.20;;;;;;;-128.00;-1.00;-1.00;100480;1280;1003304;-31
2023/12/24 03:14:26;;;;;;;0.20;0.10;;;;;;;-128.00;-1.00;-1.00;100478;1283;1005185;-33
2023/12/24 03:16:54;;;;;;;0.30;0.10;;;;;;;-128.00;-1.00;-1.00;100479;1280;1005296;-33
2023/12/24 03:19:20;;;;;;;0.70;0.30;;;;;;;-128.00;-1.00;-1.00;100529;1280;1012207;-32
2023/12/24 03:21:46;;;;;;;0.60;0.20;;;;;;;-128.00;-1.00;-1.00;100479;1280;1003164;-33
2023/12/24 03:24:12;;;;;;;1.50;0.20;;;;;;;-128.00;-1.00;-1.00;100517;1280;1002417;-32
2023/12/24 03:26:37;;;;;;;0.30;0.10;;;;;;;-128.00;-1.00;-1.00;100486;1286;1055324;-33
2023/12/24 03:29:03;;;;;;;0.30;0.20;;;;;;;-128.00;-1.00;-1.00;100445;1280;1002632;-31
2023/12/24 03:31:29;;;;;;;2.00;0.10;;;;;;;-128.00;-1.00;-1.00;100399;1283;1003021;-33
2023/12/24 03:33:54;;;;;;;0.90;0.30;;;;;;;-128.00;-1.00;-1.00;100512;1280;1045867;-33
2023/12/24 03:36:20;;;;;;;0.60;0.20;;;;;;;-128.00;-1.00;-1.00;100497;1285;1005092;-35
2023/12/24 03:38:46;;;;;;;0.90;0.20;;;;;;;-128.00;-1.00;-1.00;100466;1280;1003182;-31
2023/12/24 03:41:12;;;;;;;0.80;0.10;;;;;;;-128.00;-1.00;-1.00;100478;1280;1013541;-32
2023/12/24 03:43:38;;;;;;;6.60;0.20;;;;;;;-128.00;-1.00;-1.00;100491;1280;1003709;-32
2023/12/24 03:46:03;;;;;;;1.10;0.20;;;;;;;-128.00;-1.00;-1.00;100459;1280;1002721;-31
2023/12/24 03:48:32;;;;;;;0.70;0.10;;;;;;;-128.00;-1.00;-1.00;100497;1280;1005066;-31
2023/12/24 03:50:58;;;;;;;0.80;0.20;;;;;;;-128.00;-1.00;-1.00;100488;1285;1059310;-33
2023/12/24 03:53:24;;;;;;;0.30;0.20;;;;;;;-128.00;-1.00;-1.00;100536;1280;1003696;-33
2023/12/24 03:55:49;;;;;;;1.70;0.20;;;;;;;-128.00;-1.00;-1.00;100487;1286;1003585;-34
2023/12/24 03:58:15;;;;;;;1.20;0.20;;;;;;;-128.00;-1.00;-1.00;100491;1285;1003487;-32
2023/12/24 04:00:40;;;;;;;0.50;0.20;;;;;;;-128.00;-1.00;-1.00;100555;1280;1003415;-32
2023/12/24 04:03:06;;;;;;;0.30;0.20;;;;;;;-128.00;-1.00;-1.00;100442;1280;1002888;-32
2023/12/24 04:05:35;;;;;;;0.80;0.20;;;;;;;-128.00;-1.00;-1.00;100480;1280;1039000;-32
2023/12/24 04:08:01;;;;;;;0.90;0.20;;;;;;;-128.00;-1.00;-1.00;100513;1280;1002735;-31
2023/12/24 04:10:27;;;;;;;0.50;0.20;;;;;;;-128.00;-1.00;-1.00;100505;1280;1003305;-32
2023/12/24 04:12:52;;;;;;;3.80;0.30;;;;;;;-128.00;-1.00;-1.00;100270;1285;1003025;-33
2023/12/24 04:15:18;;;;;;;0.70;0.20;;;;;;;-128.00;-1.00;-1.00;100505;1280;1003161;-32
2023/12/24 04:17:44;;;;;;;2.00;0.30;;;;;;;-128.00;-1.00;-1.00;100496;1283;1046745;-35
2023/12/24 04:20:10;;;;;;;1.40;0.30;;;;;;;-128.00;-1.00;-1.00;100496;1285;1002746;-34
2023/12/24 04:22:35;;;;;;;1.40;0.20;;;;;;;-128.00;-1.00;-1.00;100489;1280;1003104;-32
2023/12/24 04:25:01;;;;;;;0.60;0.20;;;;;;;-128.00;-1.00;-1.00;100342;1280;1012411;-31
2023/12/24 04:27:26;;;;;;;1.80;0.30;;;;;;;-128.00;-1.00;-1.00;100522;1280;1005570;-32
2023/12/24 04:29:52;;;;;;;;;;;;;;;-128.00;-1.00;-1.00;100492;1280;1059552;-30
2023/12/24 04:32:20;;;;;;;0.40;0.10;;;;;;;-128.00;-1.00;-1.00;100489;1280;1002831;-30
2023/12/24 04:34:45;;;;;;;0.80;0.20;;;;;;;-128.00;-1.00;-1.00;100458;1280;1013896;-32
2023/12/24 04:37:11;;;;;;;0.20;0.10;;;;;;;-128.00;-1.00;-1.00;100460;1283;1002958;-34
2023/12/24 04:39:37;;;;;;;1.30;0.20;;;;;;;-128.00;-1.00;-1.00;100496;1280;1005229;-33
2023/12/24 04:42:03;;;;;;;1.00;0.10;;;;;;;-128.00;-1.00;-1.00;100667;1280;1002987;-31
2023/12/24 04:44:29;;;;;;;0.50;0.20;;;;;;;-128.00;-1.00;-1.00;100463;1280;1003110;-32
2023/12/24 04:46:55;;;;;;;1.00;0.20;;;;;;;-128.00;-1.00;-1.00;100581;1280;1002861;-33
2023/12/24 04:49:20;;;;;;;0.60;0.30;;;;;;;-128.00;-1.00;-1.00;100643;1280;1003760;-32
2023/12/24 04:51:46;;;;;;;0.40;0.10;;;;;;;-128.00;-1.00;-1.00;100432;1280;1004819;-34
2023/12/24 04:54:12;;;;;;;0.90;0.40;;;;;;;-128.00;-1.00;-1.00;100483;1281;1004411;-31
2023/12/24 04:56:37;;;;;;;1.50;0.60;;;;;;;-128.00;-1.00;-1.00;100470;1280;1003512;-32
2023/12/24 04:59:03;;;;;;;1.80;0.50;;;;;;;-128.00;-1.00;-1.00;100990;1280;1038074;-31
2023/12/24 05:01:29;;;;;;;0.80;0.40;;;;;;;-128.00;-1.00;-1.00;101465;1280;1004622;-33
2023/12/24 05:03:54;;;;;;;2.20;0.50;;;;;;;-128.00;-1.00;-1.00;101384;1280;1004750;-32
2023/12/24 05:06:21;;;;;;;2.60;0.30;;;;;;;-128.00;-1.00;-1.00;101344;1285;1003781;-34
2023/12/24 05:08:47;;;;;;;0.70;0.20;;;;;;;-128.00;-1.00;-1.00;101317;1284;1003970;-34
2023/12/24 05:11:13;;;;;;;2.00;0.70;;;;;;;-128.00;-1.00;-1.00;101350;1280;1003073;-33
2023/12/24 05:13:38;;;;;;;1.20;0.40;;;;;;;-128.00;-1.00;-1.00;101273;1280;1004602;-32
2023/12/24 05:16:05;;;;;;;1.20;0.30;;;;;;;-128.00;-1.00;-1.00;101226;1279;1004170;-34
2023/12/24 05:18:31;;;;;;;;;;;;;;;-128.00;-1.00;-1.00;101233;1280;1004843;-34
2023/12/24 05:20:57;;;;;;;0.30;0.10;;;;;;;-128.00;-1.00;-1.00;101203;1282;1004475;-32
2023/12/24 05:23:24;;;;;;;1.20;0.20;;;;;;;-128.00;-1.00;-1.00;101249;1279;1003284;-36
2023/12/24 05:25:49;;;;;;;1.70;0.30;;;;;;;-128.00;-1.00;-1.00;101203;1285;1003168;-32
2023/12/24 05:28:18;;;;;;;3.50;0.40;;;;;;;-128.00;-1.00;-1.00;101221;1280;1002776;-32
2023/12/24 05:30:47;;;;;;;1.50;0.10;;;;;;;-128.00;-1.00;-1.00;101327;1280;1011543;-33
2023/12/24 05:33:13;;;;;;;1.80;0.10;;;;;;;-128.00;-1.00;-1.00;101255;1281;1012442;-34
2023/12/24 05:35:38;;;;;;;8.60;0.40;;;;;;;-128.00;-1.00;-1.00;101246;1285;1003976;-34
2023/12/24 05:38:04;;;;;;;1.50;0.10;;;;;;;-128.00;-1.00;-1.00;101218;1285;1003483;-34
2023/12/24 05:40:30;;;;;;;1.60;0.20;;;;;;;-128.00;-1.00;-1.00;101254;1285;1002627;-31
2023/12/24 05:42:55;;;;;;;2.10;0.30;;;;;;;-128.00;-1.00;-1.00;101393;1280;1002865;-31
2023/12/24 05:45:21;;;;;;;4.70;0.20;;;;;;;-128.00;-1.00;-1.00;101222;1280;1003604;-31
2023/12/24 05:47:47;;;;;;;1.40;0.10;;;;;;;-128.00;-1.00;-1.00;101197;1279;1002931;-31
2023/12/24 05:50:13;;;;;;;2.80;0.10;;;;;;;-128.00;-1.00;-1.00;101135;1285;1003247;-34
2023/12/24 05:52:41;;;;;;;;;;;;;;;-128.00;-1.00;-1.00;101354;1284;1003319;-31
2023/12/24 05:55:07;;;;;;;4.40;0.30;;;;;;;-128.00;-1.00;-1.00;101272;1280;1002908;-33
2023/12/24 05:57:34;;;;;;;1.70;0.20;;;;;;;-128.00;-1.00;-1.00;101290;1280;1002580;-31
2023/12/24 05:59:59;;;;;;;3.90;0.20;;;;;;;-128.00;-1.00;-1.00;101205;1280;1003604;-33
2023/12/24 06:02:25;;;;;;;2.20;0.40;;;;;;;-128.00;-1.00;-1.00;101177;1280;1004338;-33
2023/12/24 06:04:51;;;;;;;1.10;0.20;;;;;;;-128.00;-1.00;-1.00;101308;1284;1002971;-33
2023/12/24 06:07:16;;;;;;;1.30;0.30;;;;;;;-128.00;-1.00;-1.00;101343;1285;1004401;-33
2023/12/24 06:09:42;;;;;;;0.50;0.20;;;;;;;-128.00;-1.00;-1.00;101252;1284;1002965;-33
2023/12/24 06:12:08;;;;;;;1.10;0.40;;;;;;;-128.00;-1.00;-1.00;100880;1284;1003310;-31
2023/12/24 06:14:34;;;;;;;0.60;0.30;;;;;;;-128.00;-1.00;-1.00;100537;1280;1003521;-32
2023/12/24 06:16:59;;;;;;;2.20;0.40;;;;;;;-128.00;-1.00;-1.00;100505;1280;1003507;-31
2023/12/24 06:19:25;;;;;;;0.70;0.30;;;;;;;-128.00;-1.00;-1.00;100441;1280;1059079;-32
2023/12/24 06:21:50;;;;;;;0.50;0.20;;;;;;;-128.00;-1.00;-1.00;100495;1280;1002730;-33
2023/12/24 06:24:21;;;;;;;2.80;0.30;;;;;;;-128.00;-1.00;-1.00;100571;1280;1004707;-33
2023/12/24 06:26:47;;;;;;;0.60;0.30;;;;;;;-128.00;-1.00;-1.00;100608;1280;1059383;-32
2023/12/24 06:29:13;;;;;;;3.80;0.30;;;;;;;-128.00;-1.00;-1.00;100938;1285;1004198;-33
2023/12/24 06:31:39;;;;;;;1.00;0.30;;;;;;;-128.00;-1.00;-1.00;101234;1284;1002880;-32
2023/12/24 06:34:04;;;;;;;1.10;0.60;;;;;;;-128.00;-1.00;-1.00;101150;1280;1002618;-32
2023/12/24 06:36:30;;;;;;;2.50;0.40;;;;;;;-128.00;-1.00;-1.00;101286;1280;1004556;-32
2023/12/24 06:38:55;;;;;;;0.90;0.40;;;;;;;-128.00;-1.00;-1.00;101239;1280;1004194;-33
2023/12/24 06:41:22;;;;;;;0.80;0.30;;;;;;;-128.00;-1.00;-1.00;100554;1280;1004793;-31
2023/12/24 06:43:47;;;;;;;0.60;0.30;;;;;;;-128.00;-1.00;-1.00;100453;1280;1003245;-32
2023/12/24 06:46:13;;;;;;;0.30;0.20;;;;;;;-128.00;-1.00;-1.00;100420;1280;1003481;-32
2023/12/24 06:48:39;;;;;;;0.50;0.30;;;;;;;-128.00;-1.00;-1.00;100586;1285;1039601;-32
2023/12/24 06:51:05;;;;;;;1.20;0.30;;;;;;;-128.00;-1.00;-1.00;100584;1285;1004482;-32
2023/12/24 06:53:31;;;;;;;0.40;0.20;;;;;;;-128.00;-1.00;-1.00;100495;1280;1004355;-32
2023/12/24 06:55:57;;;;;;;2.30;0.60;;;;;;;-128.00;-1.00;-1.00;100490;1280;1003157;-32
2023/12/24 06:58:22;;;;;;;2.00;0.60;;;;;;;-128.00;-1.00;-1.00;100488;1280;1003265;-33
2023/12/24 07:00:48;;;;;;;2.90;0.70;;;;;;;-128.00;-1.00;-1.00;100655;1280;1002729;-33
2023/12/24 07:03:13;;;;;;;1.00;0.60;;;;;;;-128.00;-1.00;-1.00;100696;1280;1003970;-32
2023/12/24 07:05:40;;;;;;;1.30;0.70;;;;;;;-128.00;-1.00;-1.00;100433;1280;1003754;-33
2023/12/24 07:08:07;;;;;;;2.80;0.80;;;;;;;-128.00;-1.00;-1.00;100471;1280;1003116;-33
2023/12/24 07:10:34;;;;;;;4.10;1.70;;;;;;;-128.00;-1.00;-1.00;100435;1280;1003532;-33
2023/12/24 07:12:59;;;;;;;2.60;1.00;;;;;;;-128.00;-1.00;-1.00;100630;1285;1003575;-31
2023/12/24 07:15:25;;;;;;;7.30;1.50;;;;;;;-128.00;-1.00;-1.00;101095;1285;1004757;-32
2023/12/24 07:17:51;;;;;;;1.70;0.80;;;;;;;-128.00;-1.00;-1.00;101331;1279;1004791;-31
2023/12/24 07:20:16;;;;;;;2.40;1.00;;;;;;;-128.00;-1.00;-1.00;101224;1284;1002506;-32
2023/12/24 07:22:42;;;;;;;2.30;0.90;;;;;;;-128.00;-1.00;-1.00;101156;1284;1004536;-33
2023/12/24 07:25:08;;;;;;;3.00;1.00;;;;;;;-128.00;-1.00;-1.00;101245;1280;1003897;-32
2023/12/24 07:27:34;;;;;;;4.70;1.20;;;;;;;-128.00;-1.00;-1.00;101229;1284;1002540;-33
2023/12/24 07:29:59;;;;;;;2.00;1.00;;;;;;;-128.00;-1.00;-1.00;101247;1280;1003336;-33
2023/12/24 07:32:25;;;;;;;3.10;1.20;;;;;;;-128.00;-1.00;-1.00;101328;1280;1005075;-33
2023/12/24 07:34:51;;;;;;;3.10;1.30;;;;;;;-128.00;-1.00;-1.00;101343;1280;1005365;-33
2023/12/24 07:37:17;;;;;;;2.10;0.90;;;;;;;-128.00;-1.00;-1.00;101178;1285;1002942;-35
2023/12/24 07:39:42;;;;;;;;;;;;;;;-128.00;-1.00;-1.00;101225;1280;1004429;-33
2023/12/24 07:42:08;;;;;;;4.00;1.40;;;;;;;-128.00;-1.00;-1.00;101222;1280;1004290;-33
2023/12/24 07:44:34;;;;;;;3.50;1.70;;;;;;;-128.00;-1.00;-1.00;101281;1280;1003095;-35
2023/12/24 07:46:59;;;;;;;3.70;2.00;;;;;;;-128.00;-1.00;-1.00;101230;1280;1002859;-33
2023/12/24 07:49:26;;;;;;;3.00;1.70;;;;;;;-128.00;-1.00;-1.00;101208;1284;1002529;-33
2023/12/24 07:51:54;;;;;;;2.10;1.40;;;;;;;-128.00;-1.00;-1.00;101225;1280;1002705;-33
2023/12/24 07:54:20;;;;;;;5.30;1.80;;;;;;;-128.00;-1.00;-1.00;101369;1279;1005788;-35
2023/12/24 07:56:46;;;;;;;4.90;1.60;;;;;;;-128.00;-1.00;-1.00;101248;1280;1002785;-36
2023/12/24 07:59:11;;;;;;;5.30;1.70;;;;;;;-128.00;-1.00;-1.00;101264;1280;1002902;-33
2023/12/24 08:01:40;;;;;;;2.90;1.50;;;;;;;-128.00;-1.00;-1.00;101326;1280;1004149;-34
2023/12/24 08:04:06;;;;;;;2.50;1.20;;;;;;;-128.00;-1.00;-1.00;101280;1282;1013754;-34
2023/12/24 08:06:31;;;;;;;6.80;1.50;;;;;;;-128.00;-1.00;-1.00;101253;1284;1003794;-33
2023/12/24 08:08:57;;;;;;;2.80;1.30;;;;;;;-128.00;-1.00;-1.00;101214;1280;1004859;-33
2023/12/24 08:11:23;;;;;;;4.20;2.20;;;;;;;-128.00;-1.00;-1.00;101365;1280;1002800;-36
2023/12/24 08:13:48;;;;;;;4.90;2.10;;;;;;;-128.00;-1.00;-1.00;101242;1280;1002192;-35
2023/12/24 08:16:14;;;;;;;2.70;1.20;;;;;;;-128.00;-1.00;-1.00;101256;1280;1003538;-34
2023/12/24 08:18:40;;;;;;;3.10;1.60;;;;;;;-128.00;-1.00;-1.00;101136;1284;1002962;-33
2023/12/24 08:21:10;;;;;;;3.50;1.60;;;;;;;-128.00;-1.00;-1.00;100569;1282;1003755;-33
2023/12/24 08:23:37;;;;;;;4.10;1.10;;;;;;;-128.00;-1.00;-1.00;101340;1280;1005590;-38
2023/12/24 08:26:04;;;;;;;3.00;1.40;;;;;;;-128.00;-1.00;-1.00;101261;1280;1004456;-35
2023/12/24 08:28:29;;;;;;;5.20;2.10;;;;;;;-128.00;-1.00;-1.00;101403;1279;1004639;-33
2023/12/24 08:30:55;;;;;;;3.90;1.60;;;;;;;-128.00;-1.00;-1.00;101255;1280;1002785;-33
2023/12/24 08:33:21;;;;;;;3.80;1.60;;;;;;;-128.00;-1.00;-1.00;101232;1285;1002796;-33
2023/12/24 08:35:46;;;;;;;3.80;2.00;;;;;;;-128.00;-1.00;-1.00;101102;1285;1005052;-34
2023/12/24 08:38:12;;;;;;;5.60;2.30;;;;;;;-128.00;-1.00;-1.00;100911;1280;1003059;-35
2023/12/24 08:40:38;;;;;;;3.50;1.40;;;;;;;-128.00;-1.00;-1.00;100538;1280;1004727;-34
2023/12/24 08:43:03;;;;;;;4.70;1.60;;;;;;;-128.00;-1.00;-1.00;100609;1280;1002414;-34
2023/12/24 08:45:29;;;;;;;2.40;1.40;;;;;;;-128.00;-1.00;-1.00;100472;1280;1056159;-34
2023/12/24 08:47:55;;;;;;;4.60;2.90;;;;;;;-128.00;-1.00;-1.00;100494;1280;1003034;-36
2023/12/24 08:50:23;;;;;;;5.00;2.80;;;;;;;-128.00;-1.00;-1.00;100476;1280;1005057;-36
2023/12/24 08:52:49;;;;;;;5.90;4.10;;;;;;;-128.00;-1.00;-1.00;100611;1280;1045777;-35
2023/12/24 08:55:15;;;;;;;5.80;3.80;;;;;;;-128.00;-1.00;-1.00;100575;1280;1003745;-36
2023/12/24 08:57:41;;;;;;;4.00;2.30;;;;;;;-128.00;-1.00;-1.00;100553;1279;1003241;-36
2023/12/24 09:00:12;;;;;;;2.40;1.20;;;;;;;-128.00;-1.00;-1.00;100503;1280;1013507;-35
2023/12/24 09:02:40;;;;;;;1.70;0.90;;;;;;;-128.00;-1.00;-1.00;100494;1285;1038501;-35
2023/12/24 09:05:08;;;;;;;2.90;2.10;;;;;;;-128.00;-1.00;-1.00;100280;1280;1046427;-35
2023/12/24 09:07:34;;;;;;;4.60;1.80;;;;;;;-128.00;-1.00;-1.00;100390;1280;1003433;-34
2023/12/24 09:10:01;;;;;;;3.40;1.90;;;;;;;-128.00;-1.00;-1.00;100493;1280;1003528;-36
2023/12/24 09:12:27;;;;;;;11.10;6.20;;;;;;;-128.00;-1.00;-1.00;100499;1282;1003598;-35
2023/12/24 09:14:53;;;;;;;5.70;3.20;;;;;;;-128.00;-1.00;-1.00;100457;1280;1004238;-35
2023/12/24 09:17:21;;;;;;;10.40;7.90;;;;;;;-128.00;-1.00;-1.00;101109;1279;1004549;-36
2023/12/24 09:19:48;;;;;;;14.90;9.50;;;;;;;-128.00;-1.00;-1.00;101297;1280;1013689;-35
2023/12/24 09:22:13;;;;;;;5.00;3.40;;;;;;;-128.00;-1.00;-1.00;101183;1284;1002955;-35
2023/12/24 09:24:39;;;;;;;6.50;2.50;;;;;;;-128.00;-1.00;-1.00;101229;1284;1002881;-35
2023/12/24 09:27:04;;;;;;;6.10;3.40;;;;;;;-128.00;-1.00;-1.00;101234;1280;1004148;-45
2023/12/24 09:29:30;;;;;;;4.60;2.20;;;;;;;-128.00;-1.00;-1.00;101255;1280;1003800;-37
2023/12/24 09:31:56;;;;;;;5.50;2.00;;;;;;;-128.00;-1.00;-1.00;101056;1280;1002640;-35
2023/12/24 09:34:21;;;;;;;5.30;2.40;;;;;;;-128.00;-1.00;-1.00;100493;1280;1004683;-36
2023/12/24 09:36:47;;;;;;;3.70;1.70;;;;;;;-128.00;-1.00;-1.00;100557;1280;1002877;-35
2023/12/24 09:39:13;;;;;;;2.80;1.20;;;;;;;-128.00;-1.00;-1.00;100437;1280;1013585;-35
2023/12/24 09:41:38;;;;;;;3.50;1.40;;;;;;;-128.00;-1.00;-1.00;100557;1280;1003977;-34
2023/12/24 09:44:05;;;;;;;2.50;1.10;;;;;;;-128.00;-1.00;-1.00;100545;1280;1002521;-35
2023/12/24 09:46:31;;;;;;;3.50;1.70;;;;;;;-128.00;-1.00;-1.00;100529;1280;1055557;-35
2023/12/24 09:48:57;;;;;;;2.20;1.20;;;;;;;-128.00;-1.00;-1.00;100427;1280;1003094;-34
2023/12/24 09:51:25;;;;;;;2.00;1.00;;;;;;;-128.00;-1.00;-1.00;100649;1280;1004520;-34
2023/12/24 09:53:51;;;;;;;3.30;1.10;;;;;;;-128.00;-1.00;-1.00;101258;1280;1011202;-35
2023/12/24 09:56:17;;;;;;;2.90;1.30;;;;;;;-128.00;-1.00;-1.00;101216;1280;1003256;-34
2023/12/24 09:58:45;;;;;;;3.20;1.30;;;;;;;-128.00;-1.00;-1.00;101231;1285;1003895;-34
2023/12/24 10:01:11;;;;;;;4.30;3.20;;;;;;;-128.00;-1.00;-1.00;101357;1285;1012653;-34
2023/12/24 10:03:37;;;;;;;4.80;4.30;;;;;;;-128.00;-1.00;-1.00;101275;1280;1002850;-33
2023/12/24 10:06:04;;;;;;;5.20;3.60;;;;;;;-128.00;-1.00;-1.00;101195;1280;1002757;-34
2023/12/24 10:08:30;;;;;;;4.30;3.20;;;;;;;-128.00;-1.00;-1.00;101257;1280;1003145;-34
2023/12/24 10:10:56;;;;;;;;;;;;;;;-128.00;-1.00;-1.00;101311;1284;1002545;-34
2023/12/24 10:13:22;;;;;;;8.50;5.00;;;;;;;-128.00;-1.00;-1.00;101345;1284;1003180;-35
2023/12/24 10:16:04;;;;;;;5.30;4.30;;;;;;;-128.00;-1.00;-1.00;101312;1280;1005231;-33
2023/12/24 10:18:31;;;;;;;4.70;4.10;;;;;;;-128.00;-1.00;-1.00;101214;1280;1005483;-35
2023/12/24 10:21:05;;;;;;;3.90;2.00;;;;;;;-128.00;-1.00;-1.00;101449;1280;1002966;-35
2023/12/24 10:23:31;;;;;;;6.60;3.90;;;;;;;-128.00;-1.00;-1.00;101184;1280;1011245;-34
2023/12/24 10:26:02;;;;;;;5.50;3.70;;;;;;;-128.00;-1.00;-1.00;101218;1280;1002972;-34
2023/12/24 10:28:27;;;;;;;5.30;2.90;;;;;;;-128.00;-1.00;-1.00;101246;1282;1012307;-34
2023/12/24 10:31:05;;;;;;;9.70;6.40;;;;;;;-128.00;-1.00;-1.00;101189;1284;1002846;-35
2023/12/24 10:33:31;;;;;;;10.70;7.40;;;;;;;-128.00;-1.00;-1.00;101050;1280;1006222;-34
2023/12/24 10:35:57;;;;;;;21.20;16.80;;;;;;;-128.00;-1.00;-1.00;101220;1279;1002998;-34
2023/12/24 10:38:23;;;;;;;8.60;6.30;;;;;;;-128.00;-1.00;-1.00;101230;1280;1002786;-36
2023/12/24 10:40:48;;;;;;;37.80;20.70;;;;;;;-128.00;-1.00;-1.00;101260;1280;1002851;-34
2023/12/24 10:43:14;;;;;;;15.80;7.40;;;;;;;-128.00;-1.00;-1.00;101243;1284;1002053;-34
2023/12/24 10:45:40;;;;;;;13.30;7.40;;;;;;;-128.00;-1.00;-1.00;101265;1284;1002898;-34
2023/12/24 10:48:05;;;;;;;13.90;8.20;;;;;;;-128.00;-1.00;-1.00;101257;1280;1002815;-34
2023/12/24 10:50:31;;;;;;;15.60;9.00;;;;;;;-128.00;-1.00;-1.00;101359;1280;1002478;-34
2023/12/24 10:52:56;;;;;;;17.80;10.30;;;;;;;-128.00;-1.00;-1.00;101308;1280;1002523;-34
2023/12/24 10:55:22;;;;;;;18.60;10.60;;;;;;;-128.00;-1.00;-1.00;101407;1280;1003354;-33
2023/12/24 10:58:03;;;;;;;12.20;8.40;;;;;;;-128.00;-1.00;-1.00;101339;1284;1003229;-34
2023/12/24 11:00:29;;;;;;;11.30;6.50;;;;;;;-128.00;-1.00;-1.00;101230;1285;1013415;-34
2023/12/24 11:02:55;;;;;;;13.70;9.90;;;;;;;-128.00;-1.00;-1.00;101209;1280;1004369;-34
2023/12/24 11:05:46;;;;;;;21.50;16.90;;;;;;;-128.00;-1.00;-1.00;101258;1280;1004447;-34
2023/12/24 11:08:29;;;;;;;21.80;16.00;;;;;;;-128.00;-1.00;-1.00;101336;1280;1010861;-34
2023/12/24 11:11:01;;;;;;;16.80;12.40;;;;;;;-128.00;-1.00;-1.00;101357;1280;1014188;-34
2023/12/24 11:13:46;;;;;;;18.60;10.10;;;;;;;-128.00;-1.00;-1.00;101222;1284;1013201;-34
2023/12/24 11:16:12;;;;;;;39.90;18.90;;;;;;;-128.00;-1.00;-1.00;101295;1285;1012869;-36
2023/12/24 11:18:46;;;;;;;26.80;13.60;;;;;;;-128.00;-1.00;-1.00;101243;1280;1004302;-36
2023/12/24 11:21:13;;;;;;;16.50;8.80;;;;;;;-128.00;-1.00;-1.00;101286;1285;1010164;-33
2023/12/24 11:23:40;;;;;;;13.00;7.10;;;;;;;-128.00;-1.00;-1.00;101385;1280;1003951;-36
2023/12/24 11:26:33;;;;;;;12.70;6.70;;;;;;;-128.00;-1.00;-1.00;101342;1279;1003297;-33
2023/12/24 11:28:59;;;;;;;17.30;8.90;;;;;;;-128.00;-1.00;-1.00;101386;1284;1013051;-34
2023/12/24 11:31:26;;;;;;;11.60;6.20;;;;;;;-128.00;-1.00;-1.00;101218;1282;1002109;-33
2023/12/24 11:33:54;;;;;;;17.10;10.00;;;;;;;-128.00;-1.00;-1.00;101379;1280;1001910;-34
2023/12/24 11:36:20;;;;;;;14.60;6.80;;;;;;;-128.00;-1.00;-1.00;101263;1280;1010081;-34
2023/12/24 11:38:47;;;;;;;14.70;6.50;;;;;;;-128.00;-1.00;-1.00;101259;1280;1002666;-35
2023/12/24 11:41:15;;;;;;;14.70;6.60;;;;;;;-128.00;-1.00;-1.00;101352;1280;1002798;-34
2023/12/24 11:43:42;;;;;;;12.70;7.20;;;;;;;-128.00;-1.00;-1.00;101386;1285;1003853;-34
2023/12/24 11:46:08;;;;;;;15.70;7.90;;;;;;;-128.00;-1.00;-1.00;101353;1284;1004078;-34
2023/12/24 11:48:34;;;;;;;;;;;;;;;-128.00;-1.00;-1.00;101273;1280;1004657;-34
2023/12/24 11:51:07;;;;;;;15.70;7.40;;;;;;;-128.00;-1.00;-1.00;101308;1280;1003391;-33